sensor_id;sensor_type;location;lat;lon;timestamp;P1;durP1;ratioP1;P2;durP2;ratioP2
72517;SDS011;60540;51.178;6.738;2023-02-11T00:01:54;23.23;;;10.63;;
72517;SDS011;60540;51.178;6.738;2023-02-11T00:04:20;20.50;;;10.50;;
72517;SDS011;60540;51.178;6.738;2023-02-11T00:06:46;19.75;;;9.85;;
72517;SDS011;60540;51.178;6.738;2023-02-11T00:09:11;21.45;;;10.75;;
72517;SDS011;60540;51.178;6.738;2023-02-11T00:11:37;21.15;;;10.32;;
72517;SDS011;60540;51.178;6.738;2023-02-11T00:14:03;19.60;;;10.43;;
72517;SDS011;60540;51.178;6.738;2023-02-11T00:16:32;22.23;;;11.43;;
72517;SDS011;60540;51.178;6.738;2023-02-11T00:18:58;23.33;;;12.10;;
72517;SDS011;60540;51.178;6.738;2023-02-11T00:21:24;23.27;;;10.07;;
72517;SDS011;60540;51.178;6.738;2023-02-11T00:23:50;22.70;;;11.88;;
72517;SDS011;60540;51.178;6.738;2023-02-11T00:26:20;21.52;;;10.23;;
72517;SDS011;60540;51.178;6.738;2023-02-11T00:28:48;22.73;;;10.68;;
72517;SDS011;60540;51.178;6.738;2023-02-11T00:31:15;21.38;;;11.57;;
72517;SDS011;60540;51.178;6.738;2023-02-11T00:33:41;19.33;;;10.50;;
72517;SDS011;60540;51.178;6.738;2023-02-11T00:36:10;17.50;;;10.20;;
72517;SDS011;60540;51.178;6.738;2023-02-11T00:38:44;21.60;;;10.48;;
72517;SDS011;60540;51.178;6.738;2023-02-11T00:41:12;23.95;;;12.05;;
72517;SDS011;60540;51.178;6.738;2023-02-11T00:43:38;22.08;;;10.20;;
72517;SDS011;60540;51.178;6.738;2023-02-11T00:46:04;22.15;;;10.07;;
72517;SDS011;60540;51.178;6.738;2023-02-11T00:48:30;22.30;;;11.65;;
72517;SDS011;60540;51.178;6.738;2023-02-11T00:50:56;19.98;;;10.55;;
72517;SDS011;60540;51.178;6.738;2023-02-11T00:53:22;23.05;;;11.13;;
72517;SDS011;60540;51.178;6.738;2023-02-11T00:55:48;23.55;;;10.27;;
72517;SDS011;60540;51.178;6.738;2023-02-11T00:58:13;19.75;;;11.05;;
72517;SDS011;60540;51.178;6.738;2023-02-11T01:00:39;25.05;;;13.05;;
72517;SDS011;60540;51.178;6.738;2023-02-11T01:03:05;21.27;;;9.55;;
72517;SDS011;60540;51.178;6.738;2023-02-11T01:05:31;23.40;;;10.65;;
72517;SDS011;60540;51.178;6.738;2023-02-11T01:07:56;25.63;;;10.88;;
72517;SDS011;60540;51.178;6.738;2023-02-11T01:10:22;23.05;;;10.73;;
72517;SDS011;60540;51.178;6.738;2023-02-11T01:12:48;23.38;;;11.75;;
72517;SDS011;60540;51.178;6.738;2023-02-11T01:15:15;22.10;;;10.68;;
72517;SDS011;60540;51.178;6.738;2023-02-11T01:17:41;20.20;;;11.57;;
72517;SDS011;60540;51.178;6.738;2023-02-11T01:20:10;24.70;;;11.30;;
72517;SDS011;60540;51.178;6.738;2023-02-11T01:22:38;19.98;;;11.07;;
72517;SDS011;60540;51.178;6.738;2023-02-11T01:25:05;18.83;;;10.07;;
72517;SDS011;60540;51.178;6.738;2023-02-11T01:27:31;22.27;;;11.75;;
72517;SDS011;60540;51.178;6.738;2023-02-11T01:29:57;21.80;;;10.57;;
72517;SDS011;60540;51.178;6.738;2023-02-11T01:32:23;25.52;;;11.63;;
72517;SDS011;60540;51.178;6.738;2023-02-11T01:34:49;24.70;;;11.30;;
72517;SDS011;60540;51.178;6.738;2023-02-11T01:37:14;21.98;;;10.43;;
72517;SDS011;60540;51.178;6.738;2023-02-11T01:39:40;24.13;;;10.93;;
72517;SDS011;60540;51.178;6.738;2023-02-11T01:42:06;21.05;;;11.52;;
72517;SDS011;60540;51.178;6.738;2023-02-11T01:44:34;19.80;;;10.95;;
72517;SDS011;60540;51.178;6.738;2023-02-11T01:47:01;22.65;;;12.15;;
72517;SDS011;60540;51.178;6.738;2023-02-11T01:49:29;24.90;;;11.70;;
72517;SDS011;60540;51.178;6.738;2023-02-11T01:54:45;24.15;;;12.15;;
72517;SDS011;60540;51.178;6.738;2023-02-11T01:57:33;22.45;;;11.02;;
72517;SDS011;60540;51.178;6.738;2023-02-11T02:00:03;19.83;;;10.98;;
72517;SDS011;60540;51.178;6.738;2023-02-11T02:02:31;24.08;;;11.93;;
72517;SDS011;60540;51.178;6.738;2023-02-11T02:05:07;22.63;;;11.23;;
72517;SDS011;60540;51.178;6.738;2023-02-11T02:07:41;27.98;;;11.52;;
72517;SDS011;60540;51.178;6.738;2023-02-11T02:10:16;20.55;;;11.70;;
72517;SDS011;60540;51.178;6.738;2023-02-11T02:12:43;25.15;;;10.95;;
72517;SDS011;60540;51.178;6.738;2023-02-11T02:15:10;21.85;;;11.05;;
72517;SDS011;60540;51.178;6.738;2023-02-11T02:18:01;24.88;;;11.20;;
72517;SDS011;60540;51.178;6.738;2023-02-11T02:23:31;25.50;;;12.52;;
72517;SDS011;60540;51.178;6.738;2023-02-11T02:29:05;21.90;;;11.82;;
72517;SDS011;60540;51.178;6.738;2023-02-11T02:34:46;21.73;;;11.25;;
72517;SDS011;60540;51.178;6.738;2023-02-11T02:37:20;25.35;;;12.20;;
72517;SDS011;60540;51.178;6.738;2023-02-11T02:39:50;24.17;;;11.68;;
72517;SDS011;60540;51.178;6.738;2023-02-11T02:42:16;26.70;;;12.32;;
72517;SDS011;60540;51.178;6.738;2023-02-11T02:44:49;23.50;;;11.05;;
72517;SDS011;60540;51.178;6.738;2023-02-11T02:47:16;25.75;;;11.90;;
72517;SDS011;60540;51.178;6.738;2023-02-11T02:49:42;23.20;;;12.00;;
72517;SDS011;60540;51.178;6.738;2023-02-11T02:52:21;22.83;;;10.52;;
72517;SDS011;60540;51.178;6.738;2023-02-11T03:00:31;22.50;;;10.90;;
72517;SDS011;60540;51.178;6.738;2023-02-11T03:08:41;22.60;;;11.18;;
72517;SDS011;60540;51.178;6.738;2023-02-11T03:11:11;26.77;;;10.68;;
72517;SDS011;60540;51.178;6.738;2023-02-11T03:13:40;21.00;;;10.60;;
72517;SDS011;60540;51.178;6.738;2023-02-11T03:16:08;21.52;;;9.38;;
72517;SDS011;60540;51.178;6.738;2023-02-11T03:18:37;22.38;;;11.30;;
72517;SDS011;60540;51.178;6.738;2023-02-11T03:21:06;24.73;;;10.57;;
72517;SDS011;60540;51.178;6.738;2023-02-11T03:23:40;24.13;;;9.38;;
72517;SDS011;60540;51.178;6.738;2023-02-11T03:26:12;19.58;;;10.23;;
72517;SDS011;60540;51.178;6.738;2023-02-11T03:28:42;21.33;;;9.82;;
72517;SDS011;60540;51.178;6.738;2023-02-11T03:36:18;24.65;;;11.23;;
72517;SDS011;60540;51.178;6.738;2023-02-11T03:38:49;18.67;;;10.40;;
72517;SDS011;60540;51.178;6.738;2023-02-11T03:41:16;21.45;;;10.80;;
72517;SDS011;60540;51.178;6.738;2023-02-11T03:43:46;25.45;;;10.20;;
72517;SDS011;60540;51.178;6.738;2023-02-11T03:46:13;21.25;;;10.73;;
72517;SDS011;60540;51.178;6.738;2023-02-11T03:48:43;20.20;;;9.57;;
72517;SDS011;60540;51.178;6.738;2023-02-11T03:51:12;26.73;;;9.77;;
72517;SDS011;60540;51.178;6.738;2023-02-11T03:53:40;21.73;;;9.75;;
72517;SDS011;60540;51.178;6.738;2023-02-11T03:56:08;24.10;;;10.70;;
72517;SDS011;60540;51.178;6.738;2023-02-11T03:58:36;20.70;;;9.82;;
72517;SDS011;60540;51.178;6.738;2023-02-11T04:01:01;23.55;;;9.55;;
72517;SDS011;60540;51.178;6.738;2023-02-11T04:03:29;22.88;;;9.57;;
72517;SDS011;60540;51.178;6.738;2023-02-11T04:05:57;21.98;;;9.75;;
72517;SDS011;60540;51.178;6.738;2023-02-11T04:08:23;20.17;;;9.20;;
72517;SDS011;60540;51.178;6.738;2023-02-11T04:10:48;21.10;;;9.75;;
72517;SDS011;60540;51.178;6.738;2023-02-11T04:13:14;23.23;;;10.00;;
72517;SDS011;60540;51.178;6.738;2023-02-11T04:15:40;21.52;;;10.55;;
72517;SDS011;60540;51.178;6.738;2023-02-11T04:18:05;19.48;;;8.95;;
72517;SDS011;60540;51.178;6.738;2023-02-11T04:20:31;23.38;;;10.02;;
72517;SDS011;60540;51.178;6.738;2023-02-11T04:22:57;20.50;;;8.50;;
72517;SDS011;60540;51.178;6.738;2023-02-11T04:25:22;22.80;;;9.75;;
72517;SDS011;60540;51.178;6.738;2023-02-11T04:27:48;21.27;;;9.60;;
72517;SDS011;60540;51.178;6.738;2023-02-11T04:30:14;21.52;;;10.60;;
72517;SDS011;60540;51.178;6.738;2023-02-11T04:32:40;20.20;;;9.73;;
72517;SDS011;60540;51.178;6.738;2023-02-11T04:35:05;23.90;;;10.60;;
72517;SDS011;60540;51.178;6.738;2023-02-11T04:37:31;21.40;;;8.85;;
72517;SDS011;60540;51.178;6.738;2023-02-11T04:39:57;19.65;;;9.45;;
72517;SDS011;60540;51.178;6.738;2023-02-11T04:42:23;20.35;;;9.57;;
72517;SDS011;60540;51.178;6.738;2023-02-11T04:44:48;23.38;;;9.63;;
72517;SDS011;60540;51.178;6.738;2023-02-11T04:47:14;23.40;;;9.45;;
72517;SDS011;60540;51.178;6.738;2023-02-11T04:49:40;19.38;;;9.07;;
72517;SDS011;60540;51.178;6.738;2023-02-11T04:52:06;20.23;;;8.93;;
72517;SDS011;60540;51.178;6.738;2023-02-11T04:54:32;24.13;;;9.38;;
72517;SDS011;60540;51.178;6.738;2023-02-11T04:56:58;19.98;;;9.48;;
72517;SDS011;60540;51.178;6.738;2023-02-11T04:59:23;23.80;;;9.55;;
72517;SDS011;60540;51.178;6.738;2023-02-11T05:01:49;17.67;;;8.55;;
72517;SDS011;60540;51.178;6.738;2023-02-11T05:04:15;22.50;;;9.35;;
72517;SDS011;60540;51.178;6.738;2023-02-11T05:06:41;22.83;;;8.95;;
72517;SDS011;60540;51.178;6.738;2023-02-11T05:09:08;19.48;;;9.20;;
72517;SDS011;60540;51.178;6.738;2023-02-11T05:11:35;19.40;;;9.35;;
72517;SDS011;60540;51.178;6.738;2023-02-11T05:14:01;20.80;;;9.95;;
72517;SDS011;60540;51.178;6.738;2023-02-11T05:16:26;21.98;;;10.40;;
72517;SDS011;60540;51.178;6.738;2023-02-11T05:18:52;19.58;;;9.63;;
72517;SDS011;60540;51.178;6.738;2023-02-11T05:21:20;24.85;;;9.98;;
72517;SDS011;60540;51.178;6.738;2023-02-11T05:23:45;24.50;;;9.45;;
72517;SDS011;60540;51.178;6.738;2023-02-11T05:26:11;20.92;;;8.95;;
72517;SDS011;60540;51.178;6.738;2023-02-11T05:28:38;21.70;;;9.88;;
72517;SDS011;60540;51.178;6.738;2023-02-11T05:31:04;18.85;;;9.60;;
72517;SDS011;60540;51.178;6.738;2023-02-11T05:33:29;21.33;;;9.95;;
72517;SDS011;60540;51.178;6.738;2023-02-11T05:35:59;22.10;;;9.73;;
72517;SDS011;60540;51.178;6.738;2023-02-11T05:38:25;20.85;;;10.00;;
72517;SDS011;60540;51.178;6.738;2023-02-11T05:40:51;21.05;;;9.82;;
72517;SDS011;60540;51.178;6.738;2023-02-11T05:43:17;23.90;;;9.45;;
72517;SDS011;60540;51.178;6.738;2023-02-11T05:45:43;24.33;;;11.23;;
72517;SDS011;60540;51.178;6.738;2023-02-11T05:48:08;25.80;;;10.18;;
72517;SDS011;60540;51.178;6.738;2023-02-11T05:50:34;20.05;;;10.80;;
72517;SDS011;60540;51.178;6.738;2023-02-11T05:53:00;26.83;;;11.00;;
72517;SDS011;60540;51.178;6.738;2023-02-11T05:55:25;24.00;;;11.27;;
72517;SDS011;60540;51.178;6.738;2023-02-11T05:57:51;23.30;;;10.63;;
72517;SDS011;60540;51.178;6.738;2023-02-11T06:00:17;28.00;;;10.63;;
72517;SDS011;60540;51.178;6.738;2023-02-11T06:02:43;21.63;;;10.65;;
72517;SDS011;60540;51.178;6.738;2023-02-11T06:05:09;22.65;;;9.55;;
72517;SDS011;60540;51.178;6.738;2023-02-11T06:07:34;19.70;;;9.82;;
72517;SDS011;60540;51.178;6.738;2023-02-11T06:10:00;23.30;;;11.27;;
72517;SDS011;60540;51.178;6.738;2023-02-11T06:12:26;24.15;;;12.60;;
72517;SDS011;60540;51.178;6.738;2023-02-11T06:14:52;22.08;;;11.50;;
72517;SDS011;60540;51.178;6.738;2023-02-11T06:17:17;32.42;;;12.10;;
72517;SDS011;60540;51.178;6.738;2023-02-11T06:19:43;21.58;;;10.18;;
72517;SDS011;60540;51.178;6.738;2023-02-11T06:22:09;24.95;;;11.27;;
72517;SDS011;60540;51.178;6.738;2023-02-11T06:24:34;29.17;;;11.75;;
72517;SDS011;60540;51.178;6.738;2023-02-11T06:27:02;28.85;;;11.02;;
72517;SDS011;60540;51.178;6.738;2023-02-11T06:29:29;23.83;;;11.50;;
72517;SDS011;60540;51.178;6.738;2023-02-11T06:31:55;27.50;;;11.65;;
72517;SDS011;60540;51.178;6.738;2023-02-11T06:34:20;24.70;;;11.18;;
72517;SDS011;60540;51.178;6.738;2023-02-11T06:36:46;24.40;;;11.35;;
72517;SDS011;60540;51.178;6.738;2023-02-11T06:39:12;28.60;;;12.20;;
72517;SDS011;60540;51.178;6.738;2023-02-11T06:41:38;26.60;;;12.13;;
72517;SDS011;60540;51.178;6.738;2023-02-11T06:44:04;26.30;;;10.68;;
72517;SDS011;60540;51.178;6.738;2023-02-11T06:46:29;24.55;;;11.93;;
72517;SDS011;60540;51.178;6.738;2023-02-11T06:48:55;25.63;;;10.77;;
72517;SDS011;60540;51.178;6.738;2023-02-11T06:51:21;29.30;;;12.77;;
72517;SDS011;60540;51.178;6.738;2023-02-11T06:53:47;27.50;;;11.63;;
72517;SDS011;60540;51.178;6.738;2023-02-11T06:56:19;24.50;;;11.23;;
72517;SDS011;60540;51.178;6.738;2023-02-11T06:58:46;25.70;;;10.73;;
72517;SDS011;60540;51.178;6.738;2023-02-11T07:01:13;28.25;;;11.63;;
72517;SDS011;60540;51.178;6.738;2023-02-11T07:03:41;25.65;;;10.57;;
72517;SDS011;60540;51.178;6.738;2023-02-11T07:06:10;24.95;;;11.52;;
72517;SDS011;60540;51.178;6.738;2023-02-11T07:08:37;26.35;;;12.32;;
72517;SDS011;60540;51.178;6.738;2023-02-11T07:11:10;23.95;;;10.50;;
72517;SDS011;60540;51.178;6.738;2023-02-11T07:13:53;26.92;;;12.38;;
72517;SDS011;60540;51.178;6.738;2023-02-11T07:16:20;34.20;;;12.13;;
72517;SDS011;60540;51.178;6.738;2023-02-11T07:18:46;27.15;;;12.13;;
72517;SDS011;60540;51.178;6.738;2023-02-11T07:21:13;27.80;;;12.95;;
72517;SDS011;60540;51.178;6.738;2023-02-11T07:23:39;26.58;;;11.55;;
72517;SDS011;60540;51.178;6.738;2023-02-11T07:26:06;28.90;;;12.35;;
72517;SDS011;60540;51.178;6.738;2023-02-11T07:28:33;27.17;;;11.88;;
72517;SDS011;60540;51.178;6.738;2023-02-11T07:31:04;25.55;;;12.57;;
72517;SDS011;60540;51.178;6.738;2023-02-11T07:33:31;30.15;;;12.55;;
72517;SDS011;60540;51.178;6.738;2023-02-11T07:35:58;28.25;;;12.50;;
72517;SDS011;60540;51.178;6.738;2023-02-11T07:38:25;28.52;;;12.20;;
72517;SDS011;60540;51.178;6.738;2023-02-11T07:40:50;31.55;;;12.57;;
72517;SDS011;60540;51.178;6.738;2023-02-11T07:43:16;32.38;;;13.32;;
72517;SDS011;60540;51.178;6.738;2023-02-11T07:45:42;30.17;;;11.65;;
72517;SDS011;60540;51.178;6.738;2023-02-11T07:48:08;28.98;;;12.15;;
72517;SDS011;60540;51.178;6.738;2023-02-11T07:50:33;34.30;;;12.05;;
72517;SDS011;60540;51.178;6.738;2023-02-11T07:52:59;31.73;;;11.55;;
72517;SDS011;60540;51.178;6.738;2023-02-11T07:55:25;31.80;;;13.55;;
72517;SDS011;60540;51.178;6.738;2023-02-11T07:57:51;31.90;;;13.13;;
72517;SDS011;60540;51.178;6.738;2023-02-11T08:00:16;31.15;;;12.13;;
72517;SDS011;60540;51.178;6.738;2023-02-11T08:02:42;37.33;;;13.57;;
72517;SDS011;60540;51.178;6.738;2023-02-11T08:05:08;32.55;;;12.95;;
72517;SDS011;60540;51.178;6.738;2023-02-11T08:07:34;31.48;;;13.73;;
72517;SDS011;60540;51.178;6.738;2023-02-11T08:09:59;33.33;;;14.48;;
72517;SDS011;60540;51.178;6.738;2023-02-11T08:12:25;33.53;;;13.65;;
72517;SDS011;60540;51.178;6.738;2023-02-11T08:14:51;35.47;;;15.10;;
72517;SDS011;60540;51.178;6.738;2023-02-11T08:17:16;34.38;;;14.02;;
72517;SDS011;60540;51.178;6.738;2023-02-11T08:19:42;30.60;;;14.15;;
72517;SDS011;60540;51.178;6.738;2023-02-11T08:22:08;39.22;;;12.93;;
72517;SDS011;60540;51.178;6.738;2023-02-11T08:24:34;36.30;;;13.65;;
72517;SDS011;60540;51.178;6.738;2023-02-11T08:26:59;33.95;;;14.02;;
72517;SDS011;60540;51.178;6.738;2023-02-11T08:29:25;34.30;;;14.25;;
72517;SDS011;60540;51.178;6.738;2023-02-11T08:31:51;35.47;;;15.05;;
72517;SDS011;60540;51.178;6.738;2023-02-11T08:34:17;31.02;;;13.23;;
72517;SDS011;60540;51.178;6.738;2023-02-11T08:36:44;29.63;;;13.38;;
72517;SDS011;60540;51.178;6.738;2023-02-11T08:39:18;30.17;;;13.35;;
72517;SDS011;60540;51.178;6.738;2023-02-11T08:41:49;33.75;;;13.63;;
72517;SDS011;60540;51.178;6.738;2023-02-11T08:44:17;32.35;;;12.65;;
72517;SDS011;60540;51.178;6.738;2023-02-11T08:46:43;31.77;;;13.40;;
72517;SDS011;60540;51.178;6.738;2023-02-11T08:49:09;38.58;;;13.88;;
72517;SDS011;60540;51.178;6.738;2023-02-11T08:51:35;36.53;;;13.93;;
72517;SDS011;60540;51.178;6.738;2023-02-11T08:54:00;39.67;;;13.85;;
72517;SDS011;60540;51.178;6.738;2023-02-11T08:56:26;39.85;;;15.38;;
72517;SDS011;60540;51.178;6.738;2023-02-11T08:58:53;36.75;;;15.38;;
72517;SDS011;60540;51.178;6.738;2023-02-11T09:01:20;40.22;;;14.70;;
72517;SDS011;60540;51.178;6.738;2023-02-11T09:03:51;38.25;;;15.55;;
72517;SDS011;60540;51.178;6.738;2023-02-11T09:06:17;40.08;;;14.45;;
72517;SDS011;60540;51.178;6.738;2023-02-11T09:08:44;34.20;;;14.48;;
72517;SDS011;60540;51.178;6.738;2023-02-11T09:11:11;40.95;;;15.00;;
72517;SDS011;60540;51.178;6.738;2023-02-11T09:13:39;39.15;;;15.00;;
72517;SDS011;60540;51.178;6.738;2023-02-11T09:16:05;39.80;;;15.20;;
72517;SDS011;60540;51.178;6.738;2023-02-11T09:18:31;39.72;;;14.15;;
72517;SDS011;60540;51.178;6.738;2023-02-11T09:21:01;40.00;;;16.38;;
72517;SDS011;60540;51.178;6.738;2023-02-11T09:23:28;35.17;;;14.30;;
72517;SDS011;60540;51.178;6.738;2023-02-11T09:25:54;37.58;;;16.58;;
72517;SDS011;60540;51.178;6.738;2023-02-11T09:28:20;42.17;;;15.75;;
72517;SDS011;60540;51.178;6.738;2023-02-11T09:30:46;37.03;;;15.23;;
72517;SDS011;60540;51.178;6.738;2023-02-11T09:33:11;48.38;;;16.67;;
72517;SDS011;60540;51.178;6.738;2023-02-11T09:35:37;36.67;;;15.30;;
72517;SDS011;60540;51.178;6.738;2023-02-11T09:38:03;32.13;;;14.25;;
72517;SDS011;60540;51.178;6.738;2023-02-11T09:40:29;33.63;;;14.88;;
72517;SDS011;60540;51.178;6.738;2023-02-11T09:42:56;44.45;;;15.85;;
72517;SDS011;60540;51.178;6.738;2023-02-11T09:45:28;43.67;;;15.68;;
72517;SDS011;60540;51.178;6.738;2023-02-11T09:47:55;37.83;;;16.15;;
72517;SDS011;60540;51.178;6.738;2023-02-11T09:53:02;40.40;;;15.85;;
72517;SDS011;60540;51.178;6.738;2023-02-11T09:55:34;39.00;;;15.45;;
72517;SDS011;60540;51.178;6.738;2023-02-11T09:58:04;34.40;;;15.63;;
72517;SDS011;60540;51.178;6.738;2023-02-11T10:00:42;43.20;;;15.73;;
72517;SDS011;60540;51.178;6.738;2023-02-11T10:05:49;41.30;;;15.80;;
72517;SDS011;60540;51.178;6.738;2023-02-11T10:08:30;47.28;;;16.45;;
72517;SDS011;60540;51.178;6.738;2023-02-11T10:11:01;35.33;;;14.80;;
72517;SDS011;60540;51.178;6.738;2023-02-11T10:13:34;41.08;;;14.60;;
72517;SDS011;60540;51.178;6.738;2023-02-11T10:22:27;40.88;;;16.00;;
72517;SDS011;60540;51.178;6.738;2023-02-11T10:24:56;40.40;;;16.23;;
72517;SDS011;60540;51.178;6.738;2023-02-11T10:27:31;38.35;;;16.60;;
72517;SDS011;60540;51.178;6.738;2023-02-11T10:35:40;37.90;;;15.63;;
72517;SDS011;60540;51.178;6.738;2023-02-11T10:38:09;44.25;;;15.40;;
72517;SDS011;60540;51.178;6.738;2023-02-11T10:40:35;42.80;;;15.05;;
72517;SDS011;60540;51.178;6.738;2023-02-11T10:43:02;42.83;;;16.77;;
72517;SDS011;60540;51.178;6.738;2023-02-11T10:45:32;43.30;;;15.88;;
72517;SDS011;60540;51.178;6.738;2023-02-11T10:48:02;38.97;;;15.25;;
72517;SDS011;60540;51.178;6.738;2023-02-11T10:50:31;44.25;;;16.95;;
72517;SDS011;60540;51.178;6.738;2023-02-11T10:53:17;37.63;;;14.40;;
72517;SDS011;60540;51.178;6.738;2023-02-11T10:55:49;35.92;;;14.57;;
72517;SDS011;60540;51.178;6.738;2023-02-11T10:58:23;39.85;;;15.75;;
72517;SDS011;60540;51.178;6.738;2023-02-11T11:00:51;42.38;;;16.10;;
72517;SDS011;60540;51.178;6.738;2023-02-11T11:03:20;36.45;;;15.00;;
72517;SDS011;60540;51.178;6.738;2023-02-11T11:05:48;41.35;;;17.05;;
72517;SDS011;60540;51.178;6.738;2023-02-11T11:08:16;37.97;;;14.77;;
72517;SDS011;60540;51.178;6.738;2023-02-11T11:10:44;45.42;;;15.73;;
72517;SDS011;60540;51.178;6.738;2023-02-11T11:18:38;43.17;;;15.73;;
72517;SDS011;60540;51.178;6.738;2023-02-11T11:23:58;39.42;;;14.93;;
72517;SDS011;60540;51.178;6.738;2023-02-11T11:26:26;41.22;;;15.73;;
72517;SDS011;60540;51.178;6.738;2023-02-11T11:28:55;37.53;;;15.10;;
72517;SDS011;60540;51.178;6.738;2023-02-11T11:33:54;47.10;;;17.20;;
72517;SDS011;60540;51.178;6.738;2023-02-11T11:36:21;46.42;;;15.80;;
72517;SDS011;60540;51.178;6.738;2023-02-11T11:38:51;46.30;;;17.48;;
72517;SDS011;60540;51.178;6.738;2023-02-11T11:44:03;40.42;;;15.82;;
72517;SDS011;60540;51.178;6.738;2023-02-11T11:46:45;40.97;;;17.95;;
72517;SDS011;60540;51.178;6.738;2023-02-11T11:49:24;41.47;;;15.45;;
72517;SDS011;60540;51.178;6.738;2023-02-11T11:51:55;41.42;;;15.32;;
72517;SDS011;60540;51.178;6.738;2023-02-11T11:54:27;41.63;;;16.15;;
72517;SDS011;60540;51.178;6.738;2023-02-11T11:57:14;40.75;;;15.70;;
72517;SDS011;60540;51.178;6.738;2023-02-11T11:59:41;44.67;;;17.35;;
72517;SDS011;60540;51.178;6.738;2023-02-11T12:05:11;39.13;;;14.63;;
72517;SDS011;60540;51.178;6.738;2023-02-11T12:12:54;39.17;;;15.70;;
72517;SDS011;60540;51.178;6.738;2023-02-11T12:18:02;38.75;;;15.88;;
72517;SDS011;60540;51.178;6.738;2023-02-11T12:26:24;40.67;;;16.13;;
72517;SDS011;60540;51.178;6.738;2023-02-11T12:31:55;40.25;;;14.80;;
72517;SDS011;60540;51.178;6.738;2023-02-11T12:34:35;34.30;;;13.70;;
72517;SDS011;60540;51.178;6.738;2023-02-11T12:37:06;39.63;;;16.35;;
72517;SDS011;60540;51.178;6.738;2023-02-11T12:39:43;39.25;;;16.35;;
72517;SDS011;60540;51.178;6.738;2023-02-11T12:45:25;40.80;;;16.63;;
72517;SDS011;60540;51.178;6.738;2023-02-11T12:50:48;41.92;;;17.00;;
72517;SDS011;60540;51.178;6.738;2023-02-11T12:56:27;40.10;;;16.35;;
72517;SDS011;60540;51.178;6.738;2023-02-11T12:58:58;38.58;;;18.77;;
72517;SDS011;60540;51.178;6.738;2023-02-11T13:01:25;38.50;;;16.00;;
72517;SDS011;60540;51.178;6.738;2023-02-11T13:04:14;44.90;;;16.27;;
72517;SDS011;60540;51.178;6.738;2023-02-11T13:06:45;40.35;;;15.23;;
72517;SDS011;60540;51.178;6.738;2023-02-11T13:09:25;40.08;;;16.23;;
72517;SDS011;60540;51.178;6.738;2023-02-11T13:11:54;44.38;;;16.38;;
72517;SDS011;60540;51.178;6.738;2023-02-11T13:14:35;42.13;;;16.60;;
72517;SDS011;60540;51.178;6.738;2023-02-11T13:17:03;43.88;;;17.95;;
72517;SDS011;60540;51.178;6.738;2023-02-11T13:19:49;41.13;;;16.48;;
72517;SDS011;60540;51.178;6.738;2023-02-11T13:22:31;42.88;;;15.77;;
72517;SDS011;60540;51.178;6.738;2023-02-11T13:25:14;41.03;;;17.00;;
72517;SDS011;60540;51.178;6.738;2023-02-11T13:27:43;46.10;;;16.40;;
72517;SDS011;60540;51.178;6.738;2023-02-11T13:30:32;42.65;;;16.55;;
72517;SDS011;60540;51.178;6.738;2023-02-11T13:35:32;46.95;;;19.25;;
72517;SDS011;60540;51.178;6.738;2023-02-11T13:41:31;53.75;;;17.88;;
72517;SDS011;60540;51.178;6.738;2023-02-11T13:43:41;47.50;;;19.65;;
72517;SDS011;60540;51.178;6.738;2023-02-11T13:46:09;42.33;;;16.33;;
72517;SDS011;60540;51.178;6.738;2023-02-11T13:48:49;37.88;;;15.45;;
72517;SDS011;60540;51.178;6.738;2023-02-11T13:51:18;44.08;;;17.75;;
72517;SDS011;60540;51.178;6.738;2023-02-11T13:54:03;40.38;;;17.83;;
72517;SDS011;60540;51.178;6.738;2023-02-11T13:56:31;41.45;;;15.65;;
72517;SDS011;60540;51.178;6.738;2023-02-11T13:59:00;47.20;;;18.27;;
72517;SDS011;60540;51.178;6.738;2023-02-11T14:04:31;42.67;;;16.17;;
72517;SDS011;60540;51.178;6.738;2023-02-11T14:07:25;40.65;;;16.88;;
72517;SDS011;60540;51.178;6.738;2023-02-11T14:13:28;40.40;;;16.85;;
72517;SDS011;60540;51.178;6.738;2023-02-11T14:16:08;41.50;;;16.58;;
72517;SDS011;60540;51.178;6.738;2023-02-11T14:18:35;45.45;;;16.90;;
72517;SDS011;60540;51.178;6.738;2023-02-11T14:21:22;40.58;;;16.55;;
72517;SDS011;60540;51.178;6.738;2023-02-11T14:28:46;39.83;;;16.33;;
72517;SDS011;60540;51.178;6.738;2023-02-11T14:31:22;47.95;;;17.33;;
72517;SDS011;60540;51.178;6.738;2023-02-11T14:36:46;42.50;;;17.48;;
72517;SDS011;60540;51.178;6.738;2023-02-11T14:41:45;40.55;;;16.77;;
72517;SDS011;60540;51.178;6.738;2023-02-11T14:44:23;46.20;;;16.17;;
72517;SDS011;60540;51.178;6.738;2023-02-11T14:46:51;39.78;;;16.75;;
72517;SDS011;60540;51.178;6.738;2023-02-11T14:49:35;43.78;;;15.98;;
72517;SDS011;60540;51.178;6.738;2023-02-11T14:52:14;43.67;;;18.40;;
72517;SDS011;60540;51.178;6.738;2023-02-11T14:54:44;41.55;;;17.38;;
72517;SDS011;60540;51.178;6.738;2023-02-11T14:59:51;43.80;;;18.48;;
72517;SDS011;60540;51.178;6.738;2023-02-11T15:02:34;49.25;;;18.73;;
72517;SDS011;60540;51.178;6.738;2023-02-11T15:07:52;39.55;;;16.50;;
72517;SDS011;60540;51.178;6.738;2023-02-11T15:10:22;41.55;;;17.65;;
72517;SDS011;60540;51.178;6.738;2023-02-11T15:15:18;40.28;;;16.42;;
72517;SDS011;60540;51.178;6.738;2023-02-11T15:17:44;42.28;;;17.38;;
72517;SDS011;60540;51.178;6.738;2023-02-11T15:23:07;44.95;;;17.00;;
72517;SDS011;60540;51.178;6.738;2023-02-11T15:25:43;43.78;;;16.17;;
72517;SDS011;60540;51.178;6.738;2023-02-11T15:28:14;44.95;;;17.25;;
72517;SDS011;60540;51.178;6.738;2023-02-11T15:30:46;46.70;;;16.90;;
72517;SDS011;60540;51.178;6.738;2023-02-11T15:33:20;41.72;;;17.92;;
72517;SDS011;60540;51.178;6.738;2023-02-11T15:35:46;41.00;;;16.02;;
72517;SDS011;60540;51.178;6.738;2023-02-11T15:38:12;43.03;;;17.30;;
72517;SDS011;60540;51.178;6.738;2023-02-11T15:40:38;45.67;;;18.35;;
72517;SDS011;60540;51.178;6.738;2023-02-11T15:43:05;42.90;;;17.67;;
72517;SDS011;60540;51.178;6.738;2023-02-11T15:45:33;42.67;;;16.60;;
72517;SDS011;60540;51.178;6.738;2023-02-11T15:48:23;45.33;;;17.70;;
72517;SDS011;60540;51.178;6.738;2023-02-11T15:50:55;42.58;;;16.70;;
72517;SDS011;60540;51.178;6.738;2023-02-11T15:53:26;44.88;;;17.95;;
72517;SDS011;60540;51.178;6.738;2023-02-11T15:56:01;41.00;;;17.15;;
72517;SDS011;60540;51.178;6.738;2023-02-11T15:58:52;41.47;;;16.73;;
72517;SDS011;60540;51.178;6.738;2023-02-11T16:01:27;43.95;;;18.48;;
72517;SDS011;60540;51.178;6.738;2023-02-11T16:03:57;46.63;;;18.17;;
72517;SDS011;60540;51.178;6.738;2023-02-11T16:06:26;45.30;;;16.92;;
72517;SDS011;60540;51.178;6.738;2023-02-11T16:09:05;41.75;;;16.92;;
72517;SDS011;60540;51.178;6.738;2023-02-11T16:14:23;48.65;;;18.63;;
72517;SDS011;60540;51.178;6.738;2023-02-11T16:19:41;49.75;;;17.02;;
72517;SDS011;60540;51.178;6.738;2023-02-11T16:22:09;45.47;;;18.90;;
72517;SDS011;60540;51.178;6.738;2023-02-11T16:24:36;45.47;;;18.15;;
72517;SDS011;60540;51.178;6.738;2023-02-11T16:27:04;40.15;;;16.33;;
72517;SDS011;60540;51.178;6.738;2023-02-11T16:29:32;47.65;;;18.13;;
72517;SDS011;60540;51.178;6.738;2023-02-11T16:32:05;46.63;;;18.20;;
72517;SDS011;60540;51.178;6.738;2023-02-11T16:34:33;47.55;;;17.55;;
72517;SDS011;60540;51.178;6.738;2023-02-11T16:36:59;41.70;;;16.88;;
72517;SDS011;60540;51.178;6.738;2023-02-11T16:39:27;43.83;;;18.13;;
72517;SDS011;60540;51.178;6.738;2023-02-11T16:41:53;40.88;;;17.65;;